sensor_id;sensor_type;location;lat;lon;timestamp;temperature;humidity
39931;DHT22;26635;-35.248;149.138;2023-01-05T00:02:10;19.00;65.90
39931;DHT22;26635;-35.248;149.138;2023-01-05T00:04:46;18.70;68.60
39931;DHT22;26635;-35.248;149.138;2023-01-05T00:07:17;18.40;68.90
39931;DHT22;26635;-35.248;149.138;2023-01-05T00:09:47;18.30;65.60
39931;DHT22;26635;-35.248;149.138;2023-01-05T00:12:18;18.10;69.10
39931;DHT22;26635;-35.248;149.138;2023-01-05T00:15:08;18.00;69.10
39931;DHT22;26635;-35.248;149.138;2023-01-05T00:17:56;17.90;70.20
39931;DHT22;26635;-35.248;149.138;2023-01-05T00:20:44;17.80;69.20
39931;DHT22;26635;-35.248;149.138;2023-01-05T00:23:32;17.80;69.20
39931;DHT22;26635;-35.248;149.138;2023-01-05T00:26:03;17.70;69.80
39931;DHT22;26635;-35.248;149.138;2023-01-05T00:28:33;17.60;69.30
39931;DHT22;26635;-35.248;149.138;2023-01-05T00:31:04;17.70;70.30
39931;DHT22;26635;-35.248;149.138;2023-01-05T00:33:35;17.60;69.30
39931;DHT22;26635;-35.248;149.138;2023-01-05T00:36:10;17.70;69.30
39931;DHT22;26635;-35.248;149.138;2023-01-05T00:38:41;17.70;69.40
39931;DHT22;26635;-35.248;149.138;2023-01-05T00:41:11;17.70;67.00
39931;DHT22;26635;-35.248;149.138;2023-01-05T00:43:42;17.70;69.90
39931;DHT22;26635;-35.248;149.138;2023-01-05T00:46:15;17.70;68.60
39931;DHT22;26635;-35.248;149.138;2023-01-05T00:48:47;17.70;68.80
39931;DHT22;26635;-35.248;149.138;2023-01-05T00:51:17;17.70;69.10
39931;DHT22;26635;-35.248;149.138;2023-01-05T00:53:49;17.70;68.80
39931;DHT22;26635;-35.248;149.138;2023-01-05T00:56:20;17.70;70.20
39931;DHT22;26635;-35.248;149.138;2023-01-05T00:58:53;17.70;69.60
39931;DHT22;26635;-35.248;149.138;2023-01-05T01:01:25;17.60;69.20
39931;DHT22;26635;-35.248;149.138;2023-01-05T01:03:56;17.60;68.90
39931;DHT22;26635;-35.248;149.138;2023-01-05T01:06:27;17.50;67.60
39931;DHT22;26635;-35.248;149.138;2023-01-05T01:08:58;17.50;67.50
39931;DHT22;26635;-35.248;149.138;2023-01-05T01:11:33;17.40;68.90
39931;DHT22;26635;-35.248;149.138;2023-01-05T01:14:06;17.40;70.00
39931;DHT22;26635;-35.248;149.138;2023-01-05T01:16:39;17.30;70.70
39931;DHT22;26635;-35.248;149.138;2023-01-05T01:19:19;17.30;69.10
39931;DHT22;26635;-35.248;149.138;2023-01-05T01:21:53;17.30;68.90
39931;DHT22;26635;-35.248;149.138;2023-01-05T01:24:27;17.20;67.90
39931;DHT22;26635;-35.248;149.138;2023-01-05T01:26:58;17.20;69.50
39931;DHT22;26635;-35.248;149.138;2023-01-05T01:29:29;17.20;69.60
39931;DHT22;26635;-35.248;149.138;2023-01-05T01:31:59;17.20;69.40
39931;DHT22;26635;-35.248;149.138;2023-01-05T01:34:30;17.20;70.20
39931;DHT22;26635;-35.248;149.138;2023-01-05T01:37:02;17.20;68.80
39931;DHT22;26635;-35.248;149.138;2023-01-05T01:39:32;17.20;68.10
39931;DHT22;26635;-35.248;149.138;2023-01-05T01:42:10;17.30;68.90
39931;DHT22;26635;-35.248;149.138;2023-01-05T01:44:57;17.30;68.10
39931;DHT22;26635;-35.248;149.138;2023-01-05T01:50:33;17.60;69.20
39931;DHT22;26635;-35.248;149.138;2023-01-05T01:53:08;17.70;68.50
39931;DHT22;26635;-35.248;149.138;2023-01-05T01:55:41;17.70;67.80
39931;DHT22;26635;-35.248;149.138;2023-01-05T01:58:16;17.80;69.10
39931;DHT22;26635;-35.248;149.138;2023-01-05T02:00:47;17.90;68.80
39931;DHT22;26635;-35.248;149.138;2023-01-05T02:03:18;17.90;68.80
39931;DHT22;26635;-35.248;149.138;2023-01-05T02:05:48;18.00;68.50
39931;DHT22;26635;-35.248;149.138;2023-01-05T02:08:23;18.10;69.40
39931;DHT22;26635;-35.248;149.138;2023-01-05T02:25:07;18.90;65.40
39931;DHT22;26635;-35.248;149.138;2023-01-05T02:28:11;18.90;64.10
39931;DHT22;26635;-35.248;149.138;2023-01-05T02:33:54;18.90;65.40
39931;DHT22;26635;-35.248;149.138;2023-01-05T02:36:52;18.90;64.70
39931;DHT22;26635;-35.248;149.138;2023-01-05T02:39:41;18.90;66.00
39931;DHT22;26635;-35.248;149.138;2023-01-05T02:42:24;18.80;66.60
39931;DHT22;26635;-35.248;149.138;2023-01-05T02:44:59;18.70;66.90
39931;DHT22;26635;-35.248;149.138;2023-01-05T02:47:38;18.70;66.80
39931;DHT22;26635;-35.248;149.138;2023-01-05T02:53:04;18.70;66.40
39931;DHT22;26635;-35.248;149.138;2023-01-05T02:55:47;18.80;66.90
39931;DHT22;26635;-35.248;149.138;2023-01-05T02:58:47;18.90;62.00
39931;DHT22;26635;-35.248;149.138;2023-01-05T03:04:15;19.00;61.10
39931;DHT22;26635;-35.248;149.138;2023-01-05T03:07:01;19.10;63.90
39931;DHT22;26635;-35.248;149.138;2023-01-05T03:09:35;19.10;65.60
39931;DHT22;26635;-35.248;149.138;2023-01-05T03:15:25;19.30;65.70
39931;DHT22;26635;-35.248;149.138;2023-01-05T03:17:59;19.40;64.40
39931;DHT22;26635;-35.248;149.138;2023-01-05T03:20:49;19.50;64.00
39931;DHT22;26635;-35.248;149.138;2023-01-05T03:23:21;19.50;64.70
39931;DHT22;26635;-35.248;149.138;2023-01-05T03:26:16;19.40;64.20
39931;DHT22;26635;-35.248;149.138;2023-01-05T03:29:05;19.60;65.20
39931;DHT22;26635;-35.248;149.138;2023-01-05T03:32:02;20.00;65.50
39931;DHT22;26635;-35.248;149.138;2023-01-05T03:35:17;20.30;61.10
39931;DHT22;26635;-35.248;149.138;2023-01-05T03:40:45;20.70;61.60
39931;DHT22;26635;-35.248;149.138;2023-01-05T03:43:20;20.80;62.20
39931;DHT22;26635;-35.248;149.138;2023-01-05T03:45:55;21.00;60.30
39931;DHT22;26635;-35.248;149.138;2023-01-05T03:48:27;21.10;60.10
39931;DHT22;26635;-35.248;149.138;2023-01-05T03:50:58;21.00;59.70
39931;DHT22;26635;-35.248;149.138;2023-01-05T03:53:29;20.90;59.60
39931;DHT22;26635;-35.248;149.138;2023-01-05T03:56:00;20.80;60.90
39931;DHT22;26635;-35.248;149.138;2023-01-05T03:58:32;20.70;59.90
39931;DHT22;26635;-35.248;149.138;2023-01-05T04:01:03;20.60;61.50
39931;DHT22;26635;-35.248;149.138;2023-01-05T04:03:36;20.40;61.20
39931;DHT22;26635;-35.248;149.138;2023-01-05T04:06:08;20.20;61.50
39931;DHT22;26635;-35.248;149.138;2023-01-05T04:08:38;20.00;62.20
39931;DHT22;26635;-35.248;149.138;2023-01-05T04:11:17;19.90;60.40
39931;DHT22;26635;-35.248;149.138;2023-01-05T04:13:49;19.70;60.50
39931;DHT22;26635;-35.248;149.138;2023-01-05T04:16:21;19.60;60.90
39931;DHT22;26635;-35.248;149.138;2023-01-05T04:18:52;19.60;63.80
39931;DHT22;26635;-35.248;149.138;2023-01-05T04:21:23;19.60;62.40
39931;DHT22;26635;-35.248;149.138;2023-01-05T04:23:55;19.60;62.20
39931;DHT22;26635;-35.248;149.138;2023-01-05T04:26:26;19.60;63.60
39931;DHT22;26635;-35.248;149.138;2023-01-05T04:29:00;19.60;61.80
39931;DHT22;26635;-35.248;149.138;2023-01-05T04:31:36;19.50;62.40
39931;DHT22;26635;-35.248;149.138;2023-01-05T04:34:07;19.60;64.20
39931;DHT22;26635;-35.248;149.138;2023-01-05T04:36:40;19.60;62.90
39931;DHT22;26635;-35.248;149.138;2023-01-05T04:39:13;19.50;62.00
39931;DHT22;26635;-35.248;149.138;2023-01-05T04:41:45;19.40;62.70
39931;DHT22;26635;-35.248;149.138;2023-01-05T04:44:17;19.40;62.70
39931;DHT22;26635;-35.248;149.138;2023-01-05T04:46:48;19.30;62.70
39931;DHT22;26635;-35.248;149.138;2023-01-05T04:49:19;19.30;62.90
39931;DHT22;26635;-35.248;149.138;2023-01-05T04:51:49;19.20;64.70
39931;DHT22;26635;-35.248;149.138;2023-01-05T04:54:19;19.20;64.70
39931;DHT22;26635;-35.248;149.138;2023-01-05T04:56:50;19.30;63.50
39931;DHT22;26635;-35.248;149.138;2023-01-05T04:59:20;19.20;63.90
39931;DHT22;26635;-35.248;149.138;2023-01-05T05:01:51;19.30;62.40
39931;DHT22;26635;-35.248;149.138;2023-01-05T05:04:21;19.40;62.90
39931;DHT22;26635;-35.248;149.138;2023-01-05T05:06:54;19.40;62.70
39931;DHT22;26635;-35.248;149.138;2023-01-05T05:09:25;19.40;63.50
39931;DHT22;26635;-35.248;149.138;2023-01-05T05:11:58;19.40;63.60
39931;DHT22;26635;-35.248;149.138;2023-01-05T05:14:29;19.40;63.50
39931;DHT22;26635;-35.248;149.138;2023-01-05T05:17:00;19.50;61.20
39931;DHT22;26635;-35.248;149.138;2023-01-05T05:19:31;19.60;62.40
39931;DHT22;26635;-35.248;149.138;2023-01-05T05:22:01;19.60;60.40
39931;DHT22;26635;-35.248;149.138;2023-01-05T05:24:32;19.70;60.00
39931;DHT22;26635;-35.248;149.138;2023-01-05T05:27:03;19.70;60.70
39931;DHT22;26635;-35.248;149.138;2023-01-05T05:29:34;19.70;61.70
39931;DHT22;26635;-35.248;149.138;2023-01-05T05:32:04;19.70;61.60
39931;DHT22;26635;-35.248;149.138;2023-01-05T05:34:35;19.60;59.60
39931;DHT22;26635;-35.248;149.138;2023-01-05T05:37:06;19.60;60.30
39931;DHT22;26635;-35.248;149.138;2023-01-05T05:39:37;19.60;62.40
39931;DHT22;26635;-35.248;149.138;2023-01-05T05:42:07;19.60;59.40
39931;DHT22;26635;-35.248;149.138;2023-01-05T05:44:38;19.60;61.70
39931;DHT22;26635;-35.248;149.138;2023-01-05T05:47:10;19.60;60.70
39931;DHT22;26635;-35.248;149.138;2023-01-05T05:49:41;19.50;60.00
39931;DHT22;26635;-35.248;149.138;2023-01-05T05:52:11;19.40;59.60
39931;DHT22;26635;-35.248;149.138;2023-01-05T05:54:41;19.40;59.80
39931;DHT22;26635;-35.248;149.138;2023-01-05T05:57:11;19.20;59.40
39931;DHT22;26635;-35.248;149.138;2023-01-05T05:59:43;19.10;60.10
39931;DHT22;26635;-35.248;149.138;2023-01-05T06:02:13;19.10;62.30
39931;DHT22;26635;-35.248;149.138;2023-01-05T06:04:45;19.20;60.80
39931;DHT22;26635;-35.248;149.138;2023-01-05T06:07:15;19.30;61.20
39931;DHT22;26635;-35.248;149.138;2023-01-05T06:09:46;19.40;61.40
39931;DHT22;26635;-35.248;149.138;2023-01-05T06:12:16;19.40;58.30
39931;DHT22;26635;-35.248;149.138;2023-01-05T06:14:47;19.40;59.10
39931;DHT22;26635;-35.248;149.138;2023-01-05T06:17:18;19.40;61.00
39931;DHT22;26635;-35.248;149.138;2023-01-05T06:19:48;19.40;61.10
39931;DHT22;26635;-35.248;149.138;2023-01-05T06:22:18;19.50;61.60
39931;DHT22;26635;-35.248;149.138;2023-01-05T06:24:49;19.40;59.30
39931;DHT22;26635;-35.248;149.138;2023-01-05T06:27:19;19.50;60.50
39931;DHT22;26635;-35.248;149.138;2023-01-05T06:29:50;19.50;60.30
39931;DHT22;26635;-35.248;149.138;2023-01-05T06:32:21;19.50;58.80
39931;DHT22;26635;-35.248;149.138;2023-01-05T06:34:51;19.50;59.20
39931;DHT22;26635;-35.248;149.138;2023-01-05T06:37:21;19.60;59.30
39931;DHT22;26635;-35.248;149.138;2023-01-05T06:39:52;19.60;60.80
39931;DHT22;26635;-35.248;149.138;2023-01-05T06:42:25;19.70;57.90
39931;DHT22;26635;-35.248;149.138;2023-01-05T06:44:56;19.70;59.40
39931;DHT22;26635;-35.248;149.138;2023-01-05T06:47:27;19.70;60.00
39931;DHT22;26635;-35.248;149.138;2023-01-05T06:49:59;19.60;59.30
39931;DHT22;26635;-35.248;149.138;2023-01-05T06:52:29;19.50;60.50
39931;DHT22;26635;-35.248;149.138;2023-01-05T06:55:07;19.30;60.10
39931;DHT22;26635;-35.248;149.138;2023-01-05T06:57:38;19.20;61.20
39931;DHT22;26635;-35.248;149.138;2023-01-05T07:00:10;19.10;61.70
39931;DHT22;26635;-35.248;149.138;2023-01-05T07:02:40;18.90;61.30
39931;DHT22;26635;-35.248;149.138;2023-01-05T07:05:11;18.80;61.60
39931;DHT22;26635;-35.248;149.138;2023-01-05T07:07:42;18.60;61.50
39931;DHT22;26635;-35.248;149.138;2023-01-05T07:10:12;18.50;61.60
39931;DHT22;26635;-35.248;149.138;2023-01-05T07:12:42;18.40;61.90
39931;DHT22;26635;-35.248;149.138;2023-01-05T07:15:13;18.30;61.90
39931;DHT22;26635;-35.248;149.138;2023-01-05T07:17:43;18.20;61.60
39931;DHT22;26635;-35.248;149.138;2023-01-05T07:20:14;18.30;61.20
39931;DHT22;26635;-35.248;149.138;2023-01-05T07:22:45;18.20;61.80
39931;DHT22;26635;-35.248;149.138;2023-01-05T07:25:15;18.10;62.40
39931;DHT22;26635;-35.248;149.138;2023-01-05T07:27:50;18.10;63.20
39931;DHT22;26635;-35.248;149.138;2023-01-05T07:30:21;18.00;62.00
39931;DHT22;26635;-35.248;149.138;2023-01-05T07:32:52;17.90;60.60
39931;DHT22;26635;-35.248;149.138;2023-01-05T07:35:27;17.90;61.70
39931;DHT22;26635;-35.248;149.138;2023-01-05T07:37:58;17.90;62.50
39931;DHT22;26635;-35.248;149.138;2023-01-05T07:40:29;17.80;63.90
39931;DHT22;26635;-35.248;149.138;2023-01-05T07:43:00;17.80;64.20
39931;DHT22;26635;-35.248;149.138;2023-01-05T07:45:31;17.70;64.70
39931;DHT22;26635;-35.248;149.138;2023-01-05T07:48:02;17.60;63.30
39931;DHT22;26635;-35.248;149.138;2023-01-05T07:50:32;17.60;62.60
39931;DHT22;26635;-35.248;149.138;2023-01-05T07:53:03;17.60;63.60
39931;DHT22;26635;-35.248;149.138;2023-01-05T07:55:33;17.50;63.50
39931;DHT22;26635;-35.248;149.138;2023-01-05T07:58:03;17.50;63.70
39931;DHT22;26635;-35.248;149.138;2023-01-05T08:00:33;17.50;62.60
39931;DHT22;26635;-35.248;149.138;2023-01-05T08:03:04;17.50;62.70
39931;DHT22;26635;-35.248;149.138;2023-01-05T08:05:35;17.40;63.60
39931;DHT22;26635;-35.248;149.138;2023-01-05T08:08:05;17.30;63.60
39931;DHT22;26635;-35.248;149.138;2023-01-05T08:10:40;17.30;64.00
39931;DHT22;26635;-35.248;149.138;2023-01-05T08:13:11;17.20;64.10
39931;DHT22;26635;-35.248;149.138;2023-01-05T08:16:00;17.20;64.10
39931;DHT22;26635;-35.248;149.138;2023-01-05T08:18:31;17.20;65.20
39931;DHT22;26635;-35.248;149.138;2023-01-05T08:21:04;17.20;65.80
39931;DHT22;26635;-35.248;149.138;2023-01-05T08:23:37;17.20;65.60
39931;DHT22;26635;-35.248;149.138;2023-01-05T08:26:13;17.20;65.20
39931;DHT22;26635;-35.248;149.138;2023-01-05T08:28:44;17.20;65.70
39931;DHT22;26635;-35.248;149.138;2023-01-05T08:31:19;17.10;63.90
39931;DHT22;26635;-35.248;149.138;2023-01-05T08:33:50;17.00;64.70
39931;DHT22;26635;-35.248;149.138;2023-01-05T08:36:22;17.00;65.20
39931;DHT22;26635;-35.248;149.138;2023-01-05T08:38:57;17.00;66.10
39931;DHT22;26635;-35.248;149.138;2023-01-05T08:41:34;16.90;66.00
39931;DHT22;26635;-35.248;149.138;2023-01-05T08:44:11;16.80;66.40
39931;DHT22;26635;-35.248;149.138;2023-01-05T08:46:41;16.80;67.10
39931;DHT22;26635;-35.248;149.138;2023-01-05T08:49:12;16.70;66.60
39931;DHT22;26635;-35.248;149.138;2023-01-05T08:51:42;16.70;67.50
39931;DHT22;26635;-35.248;149.138;2023-01-05T08:54:13;16.70;68.50
39931;DHT22;26635;-35.248;149.138;2023-01-05T08:56:43;16.70;68.10
39931;DHT22;26635;-35.248;149.138;2023-01-05T08:59:14;16.60;67.00
39931;DHT22;26635;-35.248;149.138;2023-01-05T09:01:47;16.60;69.50
39931;DHT22;26635;-35.248;149.138;2023-01-05T09:04:18;16.50;69.40
39931;DHT22;26635;-35.248;149.138;2023-01-05T09:06:48;16.50;68.10
39931;DHT22;26635;-35.248;149.138;2023-01-05T09:09:20;16.40;68.70
39931;DHT22;26635;-35.248;149.138;2023-01-05T09:11:52;16.40;70.20
39931;DHT22;26635;-35.248;149.138;2023-01-05T09:14:24;16.30;70.60
39931;DHT22;26635;-35.248;149.138;2023-01-05T09:16:54;16.20;70.90
39931;DHT22;26635;-35.248;149.138;2023-01-05T09:19:34;16.10;69.80
39931;DHT22;26635;-35.248;149.138;2023-01-05T09:22:05;16.10;69.50
39931;DHT22;26635;-35.248;149.138;2023-01-05T09:24:35;16.00;70.50
39931;DHT22;26635;-35.248;149.138;2023-01-05T09:27:06;15.90;70.10
39931;DHT22;26635;-35.248;149.138;2023-01-05T09:29:36;15.80;71.00
39931;DHT22;26635;-35.248;149.138;2023-01-05T09:32:07;15.80;71.30
39931;DHT22;26635;-35.248;149.138;2023-01-05T09:34:38;15.70;71.70
39931;DHT22;26635;-35.248;149.138;2023-01-05T09:37:09;15.70;71.60
39931;DHT22;26635;-35.248;149.138;2023-01-05T09:39:40;15.60;72.20
39931;DHT22;26635;-35.248;149.138;2023-01-05T09:42:17;15.60;72.30
39931;DHT22;26635;-35.248;149.138;2023-01-05T09:45:02;15.50;72.90
39931;DHT22;26635;-35.248;149.138;2023-01-05T09:47:38;15.50;70.80
39931;DHT22;26635;-35.248;149.138;2023-01-05T09:50:19;15.50;70.90
39931;DHT22;26635;-35.248;149.138;2023-01-05T09:52:52;15.50;71.80
39931;DHT22;26635;-35.248;149.138;2023-01-05T09:55:27;15.50;71.70
39931;DHT22;26635;-35.248;149.138;2023-01-05T09:58:15;15.50;71.80
39931;DHT22;26635;-35.248;149.138;2023-01-05T10:01:12;15.50;72.40
39931;DHT22;26635;-35.248;149.138;2023-01-05T10:03:56;15.40;72.40
39931;DHT22;26635;-35.248;149.138;2023-01-05T10:06:34;15.40;72.90
39931;DHT22;26635;-35.248;149.138;2023-01-05T10:09:07;15.30;73.10
39931;DHT22;26635;-35.248;149.138;2023-01-05T10:15:04;15.20;74.20
39931;DHT22;26635;-35.248;149.138;2023-01-05T10:17:38;15.10;74.10
39931;DHT22;26635;-35.248;149.138;2023-01-05T10:20:16;15.10;74.30
39931;DHT22;26635;-35.248;149.138;2023-01-05T10:26:29;15.10;74.00
39931;DHT22;26635;-35.248;149.138;2023-01-05T10:28:45;15.20;74.10
39931;DHT22;26635;-35.248;149.138;2023-01-05T10:31:33;15.20;74.30
39931;DHT22;26635;-35.248;149.138;2023-01-05T10:45:15;15.30;73.30
39931;DHT22;26635;-35.248;149.138;2023-01-05T10:47:49;15.30;73.40
39931;DHT22;26635;-35.248;149.138;2023-01-05T10:50:38;15.40;74.10
39931;DHT22;26635;-35.248;149.138;2023-01-05T10:53:19;15.40;74.40
39931;DHT22;26635;-35.248;149.138;2023-01-05T10:56:12;15.40;74.90
39931;DHT22;26635;-35.248;149.138;2023-01-05T10:58:44;15.40;74.90
39931;DHT22;26635;-35.248;149.138;2023-01-05T11:01:29;15.40;74.80
39931;DHT22;26635;-35.248;149.138;2023-01-05T11:04:16;15.40;74.40
39931;DHT22;26635;-35.248;149.138;2023-01-05T11:07:06;15.40;75.40
39931;DHT22;26635;-35.248;149.138;2023-01-05T11:09:40;15.30;75.40
39931;DHT22;26635;-35.248;149.138;2023-01-05T11:12:18;15.30;74.80
39931;DHT22;26635;-35.248;149.138;2023-01-05T11:14:52;15.30;75.40
39931;DHT22;26635;-35.248;149.138;2023-01-05T11:17:27;15.30;75.40
39931;DHT22;26635;-35.248;149.138;2023-01-05T11:19:58;15.40;75.40
39931;DHT22;26635;-35.248;149.138;2023-01-05T11:22:38;15.40;75.40
39931;DHT22;26635;-35.248;149.138;2023-01-05T11:25:30;15.40;75.50
39931;DHT22;26635;-35.248;149.138;2023-01-05T11:28:15;15.40;75.40
39931;DHT22;26635;-35.248;149.138;2023-01-05T11:31:05;15.30;75.40
39931;DHT22;26635;-35.248;149.138;2023-01-05T11:33:37;15.30;74.80
39931;DHT22;26635;-35.248;149.138;2023-01-05T11:36:13;15.30;75.40
39931;DHT22;26635;-35.248;149.138;2023-01-05T11:38:43;15.30;75.90
39931;DHT22;26635;-35.248;149.138;2023-01-05T11:41:21;15.30;75.40
39931;DHT22;26635;-35.248;149.138;2023-01-05T11:43:53;15.30;76.20
39931;DHT22;26635;-35.248;149.138;2023-01-05T11:46:39;15.30;76.50
39931;DHT22;26635;-35.248;149.138;2023-01-05T11:49:11;15.30;76.40
39931;DHT22;26635;-35.248;149.138;2023-01-05T11:51:41;15.20;75.70
39931;DHT22;26635;-35.248;149.138;2023-01-05T11:54:35;15.20;76.60
39931;DHT22;26635;-35.248;149.138;2023-01-05T11:57:15;15.20;76.20
39931;DHT22;26635;-35.248;149.138;2023-01-05T11:59:47;15.20;77.20
39931;DHT22;26635;-35.248;149.138;2023-01-05T12:02:37;15.20;77.30
39931;DHT22;26635;-35.248;149.138;2023-01-05T12:05:24;15.10;76.90
39931;DHT22;26635;-35.248;149.138;2023-01-05T12:08:14;15.10;77.40
39931;DHT22;26635;-35.248;149.138;2023-01-05T12:25:09;14.70;79.80
39931;DHT22;26635;-35.248;149.138;2023-01-05T12:30:37;14.60;79.30
39931;DHT22;26635;-35.248;149.138;2023-01-05T12:33:34;14.60;79.40
39931;DHT22;26635;-35.248;149.138;2023-01-05T12:57:15;14.50;76.10
39931;DHT22;26635;-35.248;149.138;2023-01-05T13:05:08;14.50;77.30
39931;DHT22;26635;-35.248;149.138;2023-01-05T13:13:21;14.40;77.60
39931;DHT22;26635;-35.248;149.138;2023-01-05T13:16:18;14.40;78.20
39931;DHT22;26635;-35.248;149.138;2023-01-05T13:21:47;14.40;78.00
39931;DHT22;26635;-35.248;149.138;2023-01-05T13:24:25;14.40;78.40
39931;DHT22;26635;-35.248;149.138;2023-01-05T13:26:59;14.30;78.90
39931;DHT22;26635;-35.248;149.138;2023-01-05T13:29:37;14.30;78.00
39931;DHT22;26635;-35.248;149.138;2023-01-05T13:38:17;14.20;76.80
39931;DHT22;26635;-35.248;149.138;2023-01-05T13:51:58;14.10;77.80
39931;DHT22;26635;-35.248;149.138;2023-01-05T13:54:46;14.10;78.40
39931;DHT22;26635;-35.248;149.138;2023-01-05T13:57:35;14.00;77.80
39931;DHT22;26635;-35.248;149.138;2023-01-05T14:00:36;14.00;78.40
39931;DHT22;26635;-35.248;149.138;2023-01-05T14:09:37;14.10;78.20
39931;DHT22;26635;-35.248;149.138;2023-01-05T14:18:01;13.90;77.80
39931;DHT22;26635;-35.248;149.138;2023-01-05T14:25:59;13.80;78.70
39931;DHT22;26635;-35.248;149.138;2023-01-05T14:36:37;13.70;78.70
39931;DHT22;26635;-35.248;149.138;2023-01-05T14:42:00;13.80;79.70
39931;DHT22;26635;-35.248;149.138;2023-01-05T14:44:51;13.90;79.30
39931;DHT22;26635;-35.248;149.138;2023-01-05T14:50:37;14.00;79.40
39931;DHT22;26635;-35.248;149.138;2023-01-05T14:53:40;14.00;78.80
39931;DHT22;26635;-35.248;149.138;2023-01-05T14:56:17;13.90;77.90
39931;DHT22;26635;-35.248;149.138;2023-01-05T14:59:12;13.90;78.60
39931;DHT22;26635;-35.248;149.138;2023-01-05T15:02:01;13.90;77.90
39931;DHT22;26635;-35.248;149.138;2023-01-05T15:04:38;14.00;78.80
39931;DHT22;26635;-35.248;149.138;2023-01-05T15:07:27;13.90;78.00
39931;DHT22;26635;-35.248;149.138;2023-01-05T15:13:14;13.90;79.30
39931;DHT22;26635;-35.248;149.138;2023-01-05T15:15:59;13.90;79.20
39931;DHT22;26635;-35.248;149.138;2023-01-05T15:32:33;13.80;80.50
39931;DHT22;26635;-35.248;149.138;2023-01-05T15:37:44;13.80;80.30
39931;DHT22;26635;-35.248;149.138;2023-01-05T15:42:53;13.80;79.60
39931;DHT22;26635;-35.248;149.138;2023-01-05T15:45:33;13.70;79.80
39931;DHT22;26635;-35.248;149.138;2023-01-05T15:48:07;13.70;80.80
39931;DHT22;26635;-35.248;149.138;2023-01-05T15:50:51;13.70;81.40
39931;DHT22;26635;-35.248;149.138;2023-01-05T15:53:24;13.60;81.20
39931;DHT22;26635;-35.248;149.138;2023-01-05T15:55:56;13.60;82.80
39931;DHT22;26635;-35.248;149.138;2023-01-05T15:58:30;13.50;82.00
39931;DHT22;26635;-35.248;149.138;2023-01-05T16:01:15;13.50;82.20
39931;DHT22;26635;-35.248;149.138;2023-01-05T16:03:47;13.40;82.50
39931;DHT22;26635;-35.248;149.138;2023-01-05T16:06:20;13.40;82.60
39931;DHT22;26635;-35.248;149.138;2023-01-05T16:08:53;13.40;82.50
39931;DHT22;26635;-35.248;149.138;2023-01-05T16:11:32;13.40;83.40
39931;DHT22;26635;-35.248;149.138;2023-01-05T16:14:14;13.30;82.90
39931;DHT22;26635;-35.248;149.138;2023-01-05T16:16:50;13.30;83.50
39931;DHT22;26635;-35.248;149.138;2023-01-05T16:19:33;13.20;83.10
39931;DHT22;26635;-35.248;149.138;2023-01-05T16:22:32;13.20;83.40
39931;DHT22;26635;-35.248;149.138;2023-01-05T16:25:24;13.10;83.80
39931;DHT22;26635;-35.248;149.138;2023-01-05T16:28:02;13.10;84.40
39931;DHT22;26635;-35.248;149.138;2023-01-05T16:30:37;13.00;84.80
39931;DHT22;26635;-35.248;149.138;2023-01-05T16:35:45;13.00;84.20
39931;DHT22;26635;-35.248;149.138;2023-01-05T16:38:29;13.00;83.60
39931;DHT22;26635;-35.248;149.138;2023-01-05T16:46:35;13.00;84.10
39931;DHT22;26635;-35.248;149.138;2023-01-05T16:49:36;12.90;83.80
39931;DHT22;26635;-35.248;149.138;2023-01-05T16:52:24;12.90;85.40
39931;DHT22;26635;-35.248;149.138;2023-01-05T16:55:38;12.90;84.60
39931;DHT22;26635;-35.248;149.138;2023-01-05T17:03:43;12.90;85.00
39931;DHT22;26635;-35.248;149.138;2023-01-05T17:06:26;12.90;84.40
39931;DHT22;26635;-35.248;149.138;2023-01-05T17:09:00;12.90;85.10
39931;DHT22;26635;-35.248;149.138;2023-01-05T17:11:35;12.90;85.20
39931;DHT22;26635;-35.248;149.138;2023-01-05T17:14:08;12.90;85.30
39931;DHT22;26635;-35.248;149.138;2023-01-05T17:16:40;12.90;85.20
39931;DHT22;26635;-35.248;149.138;2023-01-05T17:19:16;12.90;84.90
39931;DHT22;26635;-35.248;149.138;2023-01-05T17:21:59;12.90;85.00
39931;DHT22;26635;-35.248;149.138;2023-01-05T17:24:38;12.90;85.80
39931;DHT22;26635;-35.248;149.138;2023-01-05T17:27:09;12.90;84.30
39931;DHT22;26635;-35.248;149.138;2023-01-05T17:29:40;12.90;86.00
39931;DHT22;26635;-35.248;149.138;2023-01-05T17:32:11;12.90;84.80
39931;DHT22;26635;-35.248;149.138;2023-01-05T17:34:42;12.90;85.20
39931;DHT22;26635;-35.248;149.138;2023-01-05T17:37:16;12.90;85.40
39931;DHT22;26635;-35.248;149.138;2023-01-05T17:39:46;12.90;85.30
39931;DHT22;26635;-35.248;149.138;2023-01-05T17:42:17;12.90;86.30
39931;DHT22;26635;-35.248;149.138;2023-01-05T17:45:07;12.90;86.30
39931;DHT22;26635;-35.248;149.138;2023-01-05T17:47:37;13.00;87.00
39931;DHT22;26635;-35.248;149.138;2023-01-05T17:50:27;13.00;87.00
39931;DHT22;26635;-35.248;149.138;2023-01-05T17:53:00;13.00;86.90
39931;DHT22;26635;-35.248;149.138;2023-01-05T17:55:33;13.00;86.50
39931;DHT22;26635;-35.248;149.138;2023-01-05T17:58:05;13.00;86.80
39931;DHT22;26635;-35.248;149.138;2023-01-05T18:00:37;13.10;86.10
39931;DHT22;26635;-35.248;149.138;2023-01-05T18:03:14;13.10;86.40
39931;DHT22;26635;-35.248;149.138;2023-01-05T18:05:49;13.10;85.50
39931;DHT22;26635;-35.248;149.138;2023-01-05T18:08:24;13.10;85.30
39931;DHT22;26635;-35.248;149.138;2023-01-05T18:10:55;13.10;86.20
39931;DHT22;26635;-35.248;149.138;2023-01-05T18:13:25;13.20;86.90
39931;DHT22;26635;-35.248;149.138;2023-01-05T18:15:56;13.10;86.20
39931;DHT22;26635;-35.248;149.138;2023-01-05T18:18:29;13.20;86.60
39931;DHT22;26635;-35.248;149.138;2023-01-05T18:21:01;13.20;85.20
39931;DHT22;26635;-35.248;149.138;2023-01-05T18:23:33;13.20;85.30
39931;DHT22;26635;-35.248;149.138;2023-01-05T18:26:05;13.10;86.50
39931;DHT22;26635;-35.248;149.138;2023-01-05T18:28:38;13.10;86.10
39931;DHT22;26635;-35.248;149.138;2023-01-05T18:31:14;13.10;86.20
39931;DHT22;26635;-35.248;149.138;2023-01-05T18:33:45;13.00;86.50
39931;DHT22;26635;-35.248;149.138;2023-01-05T18:36:17;13.00;87.30
39931;DHT22;26635;-35.248;149.138;2023-01-05T18:38:49;13.00;87.20
39931;DHT22;26635;-35.248;149.138;2023-01-05T18:41:24;13.00;86.90
39931;DHT22;26635;-35.248;149.138;2023-01-05T18:43:54;13.10;87.10
39931;DHT22;26635;-35.248;149.138;2023-01-05T18:46:25;13.10;86.60